Time;durP1;ratioP1;P1;durP2;ratioP2;P2;SDS_P1;SDS_P2;PMS_P1;PMS_P2;Temp;Humidity;BMP_temperature;BMP_pressure;BME280_temperature;BME280_humidity;BME280_pressure;Samples;Min_cycle;Max_cycle;Signal;HPM_P1;HPM_P2
2022/03/30 00:02:01;;;;;;;4.53;1.10;;;;;;;;;;10425033;28;20302;-76
2022/03/30 00:07:03;;;;;;;4.72;1.33;;;;;;;;;;10429939;28;20203;-76
2022/03/30 00:12:04;;;;;;;5.88;1.77;;;;;;;;;;10424168;28;20199;-76
2022/03/30 00:17:05;;;;;;;3.10;0.90;;;;;;;;;;10416647;28;20211;-76
2022/03/30 00:22:06;;;;;;;6.97;1.30;;;;;;;;;;10425446;28;20253;-76
2022/03/30 00:27:08;;;;;;;3.40;1.45;;;;;;;;;;10425786;28;20282;-75
2022/03/30 00:32:09;;;;;;;2.78;1.60;;;;;;;;;;10436650;28;20265;-75
2022/03/30 00:37:10;;;;;;;3.42;1.98;;;;;;;;;;10418576;28;20629;-75
2022/03/30 00:42:18;;;;;;;5.32;2.78;;;;;;;;;;10422718;28;20234;-75
2022/03/30 00:47:21;;;;;;;2.42;2.00;;;;;;;;;;10420389;28;20203;-74
2022/03/30 00:52:22;;;;;;;11.60;3.42;;;;;;;;;;10439425;28;20223;-75
2022/03/30 00:57:24;;;;;;;6.00;2.60;;;;;;;;;;10425946;28;20253;-75
2022/03/30 01:02:26;;;;;;;9.25;2.88;;;;;;;;;;10422258;28;20212;-75
2022/03/30 01:07:27;;;;;;;7.25;2.40;;;;;;;;;;10420684;28;20624;-75
2022/03/30 01:12:29;;;;;;;5.93;2.15;;;;;;;;;;10424075;28;20297;-75
2022/03/30 01:17:30;;;;;;;5.57;2.30;;;;;;;;;;10421274;28;20214;-75
2022/03/30 01:22:31;;;;;;;7.43;2.63;;;;;;;;;;10422230;28;20214;-76
2022/03/30 01:27:32;;;;;;;7.40;2.20;;;;;;;;;;10423262;28;20694;-75
2022/03/30 01:32:36;;;;;;;5.15;2.28;;;;;;;;;;10423465;28;20917;-75
2022/03/30 01:37:37;;;;;;;8.48;2.42;;;;;;;;;;10421196;28;20199;-75
2022/03/30 01:42:38;;;;;;;6.22;2.17;;;;;;;;;;10424136;28;20206;-75
2022/03/30 01:47:40;;;;;;;4.72;2.45;;;;;;;;;;10421804;28;20204;-75
2022/03/30 01:52:41;;;;;;;3.00;1.75;;;;;;;;;;10421412;28;21058;-75
2022/03/30 01:57:43;;;;;;;4.10;2.08;;;;;;;;;;10426808;28;20313;-75
2022/03/30 02:02:44;;;;;;;7.72;2.05;;;;;;;;;;10419164;28;20214;-76
2022/03/30 02:07:46;;;;;;;9.57;2.13;;;;;;;;;;10421439;28;20203;-75
2022/03/30 02:12:47;;;;;;;8.07;1.73;;;;;;;;;;10438327;28;20202;-75
2022/03/30 02:17:48;;;;;;;3.85;1.83;;;;;;;;;;10421029;28;20219;-75
2022/03/30 02:22:49;;;;;;;5.32;2.00;;;;;;;;;;10422919;28;20198;-75
2022/03/30 02:27:50;;;;;;;4.13;1.55;;;;;;;;;;10419644;28;20207;-74
2022/03/30 02:32:51;;;;;;;6.15;1.65;;;;;;;;;;10417574;28;20214;-75
2022/03/30 02:37:55;;;;;;;5.87;1.23;;;;;;;;;;10417829;28;20301;-74
2022/03/30 02:42:56;;;;;;;7.07;1.23;;;;;;;;;;10417267;28;20656;-74
2022/03/30 02:53:17;;;;;;;3.33;1.38;;;;;;;;;;10422702;28;20229;-75
2022/03/30 02:58:19;;;;;;;2.90;1.10;;;;;;;;;;10416968;28;20947;-74
2022/03/30 03:03:20;;;;;;;2.50;1.43;;;;;;;;;;10425942;28;20332;-74
2022/03/30 03:08:21;;;;;;;5.10;1.67;;;;;;;;;;10426274;28;20200;-74
2022/03/30 03:13:22;;;;;;;7.53;1.57;;;;;;;;;;10424137;28;20599;-74
2022/03/30 03:18:23;;;;;;;8.13;1.40;;;;;;;;;;10424578;28;20234;-74
2022/03/30 03:23:24;;;;;;;8.83;2.20;;;;;;;;;;10421151;28;20233;-74
2022/03/30 03:28:25;;;;;;;10.93;1.60;;;;;;;;;;10438039;28;20225;-74
2022/03/30 03:33:26;;;;;;;5.27;2.07;;;;;;;;;;10421308;28;20293;-75
2022/03/30 03:38:27;;;;;;;2.27;1.10;;;;;;;;;;10424019;28;20762;-74
2022/03/30 03:43:28;;;;;;;8.53;1.70;;;;;;;;;;10424699;28;20312;-75
2022/03/30 03:48:29;;;;;;;4.97;1.97;;;;;;;;;;10420934;28;20198;-74
2022/03/30 03:53:31;;;;;;;3.13;1.90;;;;;;;;;;10422878;28;20223;-74
2022/03/30 03:58:32;;;;;;;5.63;2.08;;;;;;;;;;10422990;28;20238;-73
2022/03/30 04:03:33;;;;;;;5.23;1.60;;;;;;;;;;10416414;28;20922;-74
2022/03/30 04:08:34;;;;;;;5.33;1.63;;;;;;;;;;10421700;28;20205;-74
2022/03/30 04:13:36;;;;;;;5.27;2.33;;;;;;;;;;10421603;28;20683;-74
2022/03/30 04:18:37;;;;;;;5.27;1.60;;;;;;;;;;10418522;28;20202;-74
2022/03/30 04:23:38;;;;;;;7.00;2.35;;;;;;;;;;10418435;28;20199;-74
2022/03/30 04:28:40;;;;;;;4.88;1.73;;;;;;;;;;10420244;28;20204;-74
2022/03/30 04:33:41;;;;;;;3.42;1.58;;;;;;;;;;10417637;28;20307;-75
2022/03/30 04:38:43;;;;;;;7.43;2.15;;;;;;;;;;10418510;28;20285;-74
2022/03/30 04:43:44;;;;;;;7.10;1.88;;;;;;;;;;10417609;28;20725;-74
2022/03/30 04:48:45;;;;;;;9.10;2.27;;;;;;;;;;10418710;28;20282;-74
2022/03/30 04:53:46;;;;;;;4.33;1.90;;;;;;;;;;10417867;28;20660;-73
2022/03/30 04:58:47;;;;;;;5.27;2.03;;;;;;;;;;10414464;28;20203;-74
2022/03/30 05:03:48;;;;;;;8.77;2.37;;;;;;;;;;10412403;28;21003;-73
2022/03/30 05:08:49;;;;;;;5.53;1.93;;;;;;;;;;10415483;28;20284;-74
2022/03/30 05:13:51;;;;;;;5.65;2.03;;;;;;;;;;10414784;28;20948;-73
2022/03/30 05:18:52;;;;;;;6.60;2.40;;;;;;;;;;10411227;28;20208;-73
2022/03/30 05:23:53;;;;;;;8.75;2.22;;;;;;;;;;10415141;28;20214;-73
2022/03/30 05:28:54;;;;;;;7.82;2.00;;;;;;;;;;10411540;28;20199;-74
2022/03/30 05:33:55;;;;;;;17.03;3.00;;;;;;;;;;10408313;28;20335;-72
2022/03/30 05:38:56;;;;;;;9.13;2.47;;;;;;;;;;10418218;28;20195;-73
2022/03/30 05:43:58;;;;;;;9.40;2.40;;;;;;;;;;10409416;28;20233;-73
2022/03/30 05:48:59;;;;;;;8.50;2.87;;;;;;;;;;10413621;28;20209;-73
2022/03/30 05:54:00;;;;;;;8.75;3.42;;;;;;;;;;10414456;28;20231;-72
2022/03/30 05:59:01;;;;;;;12.93;3.10;;;;;;;;;;10414041;28;20199;-73
2022/03/30 06:04:02;;;;;;;5.68;3.45;;;;;;;;;;10412359;28;20234;-73
2022/03/30 06:09:05;;;;;;;10.50;2.83;;;;;;;;;;10417743;28;20694;-73
2022/03/30 06:14:06;;;;;;;9.75;2.90;;;;;;;;;;10414418;28;20211;-73
2022/03/30 06:19:08;;;;;;;15.70;2.23;;;;;;;;;;10417583;28;20210;-74
2022/03/30 06:24:10;;;;;;;9.82;2.80;;;;;;;;;;10409726;28;20219;-74
2022/03/30 06:29:12;;;;;;;14.10;2.57;;;;;;;;;;10417168;28;20211;-74
2022/03/30 06:34:14;;;;;;;7.53;2.97;;;;;;;;;;10420533;28;20223;-74
2022/03/30 06:39:15;;;;;;;10.75;2.22;;;;;;;;;;10421913;28;20294;-75
2022/03/30 06:44:17;;;;;;;8.52;3.45;;;;;;;;;;10422592;28;20280;-74
2022/03/30 06:49:18;;;;;;;7.00;2.50;;;;;;;;;;10424731;28;20227;-71
2022/03/30 06:54:19;;;;;;;15.90;3.75;;;;;;;;;;10429627;28;20222;-71
2022/03/30 06:59:20;;;;;;;14.07;3.00;;;;;;;;;;10420284;28;20203;-74
2022/03/30 07:04:21;;;;;;;8.27;3.00;;;;;;;;;;10421019;28;20211;-74
2022/03/30 07:14:42;;;;;;;9.13;1.90;;;;;;;;;;10422934;28;20257;-75
2022/03/30 07:19:44;;;;;;;11.50;2.05;;;;;;;;;;10427116;28;20256;-74
2022/03/30 07:24:45;;;;;;;7.57;1.80;;;;;;;;;;10426550;28;20207;-73
2022/03/30 07:29:48;;;;;;;9.60;2.85;;;;;;;;;;10421993;28;20257;-71
2022/03/30 07:34:53;;;;;;;6.43;1.95;;;;;;;;;;10416253;28;20246;-73
2022/03/30 07:39:54;;;;;;;13.77;2.42;;;;;;;;;;10417144;28;20199;-72
2022/03/30 07:44:55;;;;;;;8.07;1.67;;;;;;;;;;10415722;28;20331;-72
2022/03/30 07:49:56;;;;;;;8.23;1.52;;;;;;;;;;10417711;28;20651;-72
2022/03/30 07:54:59;;;;;;;11.85;1.88;;;;;;;;;;10415575;28;20829;-74
2022/03/30 08:00:02;;;;;;;7.47;1.52;;;;;;;;;;10418048;28;20206;-73
2022/03/30 08:05:08;;;;;;;7.78;2.15;;;;;;;;;;10418069;28;20207;-73
2022/03/30 08:10:09;;;;;;;3.83;1.70;;;;;;;;;;10418232;28;20260;-73
2022/03/30 08:15:12;;;;;;;10.10;1.48;;;;;;;;;;10414346;28;20219;-72
2022/03/30 08:22:25;;;;;;;5.38;1.55;;;;;;;;;;10414652;28;20303;-73
2022/03/30 08:25:34;;;;;;;4.95;1.40;;;;;;;;;;10427580;28;20886;-74
2022/03/30 08:30:36;;;;;;;6.28;1.65;;;;;;;;;;10417511;28;21175;-75
2022/03/30 08:35:37;;;;;;;8.82;1.13;;;;;;;;;;10420744;28;20601;-73
2022/03/30 08:40:38;;;;;;;6.72;1.40;;;;;;;;;;10418538;28;20225;-75
2022/03/30 08:45:40;;;;;;;7.28;1.60;;;;;;;;;;10420444;28;20346;-74
2022/03/30 08:50:41;;;;;;;4.53;1.42;;;;;;;;;;10417332;28;20273;-74
2022/03/30 08:55:42;;;;;;;6.72;1.50;;;;;;;;;;10417441;28;20233;-74
2022/03/30 09:00:43;;;;;;;4.70;1.05;;;;;;;;;;10417555;28;20246;-74
2022/03/30 09:05:45;;;;;;;6.40;1.50;;;;;;;;;;10418062;28;20253;-74
2022/03/30 09:10:47;;;;;;;5.38;1.13;;;;;;;;;;10419861;28;20207;-74
2022/03/30 09:15:49;;;;;;;8.60;2.28;;;;;;;;;;10419019;28;20223;-74
2022/03/30 09:20:57;;;;;;;5.47;1.05;;;;;;;;;;10416757;28;20203;-74
2022/03/30 09:25:58;;;;;;;6.53;1.05;;;;;;;;;;10419648;28;20575;-74
2022/03/30 09:30:59;;;;;;;5.65;1.58;;;;;;;;;;10420155;28;20334;-74
2022/03/30 09:36:00;;;;;;;4.97;1.00;;;;;;;;;;10417534;28;20265;-74
2022/03/30 09:41:03;;;;;;;3.40;1.23;;;;;;;;;;10419087;28;20238;-74
2022/03/30 09:46:13;;;;;;;2.97;0.98;;;;;;;;;;10412103;28;20199;-74
2022/03/30 09:51:14;;;;;;;7.20;1.00;;;;;;;;;;10418498;28;20218;-74
2022/03/30 09:56:19;;;;;;;7.85;1.38;;;;;;;;;;10420749;28;20227;-74
2022/03/30 10:01:22;;;;;;;5.60;1.02;;;;;;;;;;10416608;28;20638;-74
2022/03/30 10:06:26;;;;;;;11.43;1.30;;;;;;;;;;10417389;28;20213;-74
2022/03/30 10:11:28;;;;;;;4.97;1.52;;;;;;;;;;10411387;28;20631;-74
2022/03/30 10:16:29;;;;;;;5.68;1.23;;;;;;;;;;10415432;28;20575;-74
2022/03/30 10:21:37;;;;;;;4.65;1.45;;;;;;;;;;10412887;28;20194;-74
2022/03/30 10:26:41;;;;;;;8.18;1.55;;;;;;;;;;10429058;28;20278;-74
2022/03/30 10:31:42;;;;;;;4.55;1.00;;;;;;;;;;10413014;28;21051;-73
2022/03/30 10:36:58;;;;;;;5.65;1.33;;;;;;;;;;10413859;28;20977;-77
2022/03/30 10:42:09;;;;;;;5.93;1.55;;;;;;;;;;10416113;28;20198;-74
2022/03/30 10:47:10;;;;;;;7.35;1.40;;;;;;;;;;10413306;28;20206;-74
2022/03/30 10:52:35;;;;;;;4.78;1.75;;;;;;;;;;10417632;28;20297;-75
2022/03/30 10:57:45;;;;;;;3.67;1.02;;;;;;;;;;10412115;28;20966;-75
2022/03/30 11:02:46;;;;;;;4.20;1.60;;;;;;;;;;10415184;28;20211;-74
2022/03/30 11:07:47;;;;;;;3.63;1.58;;;;;;;;;;10414163;28;20318;-74
2022/03/30 11:12:58;;;;;;;3.30;1.50;;;;;;;;;;10416426;28;21013;-75
2022/03/30 11:18:17;;;;;;;6.82;1.30;;;;;;;;;;10420121;28;20207;-74
2022/03/30 11:23:22;;;;;;;7.28;1.38;;;;;;;;;;10423422;28;20238;-72
2022/03/30 11:28:40;;;;;;;7.38;1.30;;;;;;;;;;10420466;28;20261;-74
2022/03/30 11:33:42;;;;;;;4.35;1.38;;;;;;;;;;10420143;28;20617;-75
2022/03/30 11:38:45;;;;;;;4.47;1.02;;;;;;;;;;10416322;28;20208;-74
2022/03/30 11:49:06;;;;;;;2.47;1.05;;;;;;;;;;10419061;28;20231;-75
2022/03/30 11:54:11;;;;;;;6.90;1.40;;;;;;;;;;10421575;28;20260;-73
2022/03/30 11:59:12;;;;;;;6.63;1.35;;;;;;;;;;10417615;28;21666;-74
2022/03/30 12:04:14;;;;;;;5.15;1.63;;;;;;;;;;10416145;28;20710;-73
2022/03/30 12:09:18;;;;;;;3.85;1.90;;;;;;;;;;10420368;28;20280;-74
2022/03/30 12:14:26;;;;;;;5.75;1.73;;;;;;;;;;10415232;28;20204;-74
2022/03/30 12:19:27;;;;;;;3.67;1.40;;;;;;;;;;10421633;28;20675;-74
2022/03/30 12:24:32;;;;;;;5.43;1.77;;;;;;;;;;10417890;28;20210;-75
2022/03/30 12:29:33;;;;;;;9.43;2.20;;;;;;;;;;10418916;28;20281;-74
2022/03/30 12:34:34;;;;;;;6.43;2.13;;;;;;;;;;10397825;28;20215;-75
2022/03/30 12:39:38;;;;;;;6.65;2.17;;;;;;;;;;10414927;28;20206;-74
2022/03/30 12:44:40;;;;;;;4.50;1.83;;;;;;;;;;10417941;28;20207;-74
2022/03/30 12:49:42;;;;;;;9.40;1.95;;;;;;;;;;10419339;28;20204;-75
2022/03/30 12:54:45;;;;;;;5.95;1.80;;;;;;;;;;10417677;28;20285;-75
2022/03/30 12:59:46;;;;;;;5.88;2.15;;;;;;;;;;10421580;28;20195;-74
2022/03/30 13:04:48;;;;;;;4.43;2.00;;;;;;;;;;10418426;28;20632;-74
2022/03/30 13:10:04;;;;;;;5.53;1.60;;;;;;;;;;10422464;28;20214;-75
2022/03/30 13:15:05;;;;;;;9.32;2.67;;;;;;;;;;10415984;28;20589;-75
2022/03/30 13:20:07;;;;;;;6.40;2.03;;;;;;;;;;10423242;28;20238;-75
2022/03/30 13:25:08;;;;;;;8.52;2.40;;;;;;;;;;10419511;28;20610;-74
2022/03/30 13:30:09;;;;;;;9.63;2.30;;;;;;;;;;10417797;28;20209;-75
2022/03/30 13:35:10;;;;;;;9.77;2.22;;;;;;;;;;10429015;28;20603;-75
2022/03/30 13:40:12;;;;;;;6.53;2.20;;;;;;;;;;10418079;28;20217;-75
2022/03/30 13:45:14;;;;;;;2.92;2.30;;;;;;;;;;10413963;28;20690;-75
2022/03/30 13:50:15;;;;;;;6.43;2.25;;;;;;;;;;10418691;28;20203;-74
2022/03/30 13:55:16;;;;;;;5.72;2.22;;;;;;;;;;10419981;28;20257;-74
2022/03/30 14:00:19;;;;;;;8.30;1.98;;;;;;;;;;10415480;28;20241;-74
2022/03/30 14:05:20;;;;;;;2.33;2.03;;;;;;;;;;10416795;28;20558;-75
2022/03/30 14:10:21;;;;;;;4.55;1.50;;;;;;;;;;10418098;28;20218;-75
2022/03/30 14:15:22;;;;;;;3.65;1.13;;;;;;;;;;10422852;28;20225;-75
2022/03/30 14:20:23;;;;;;;10.15;1.45;;;;;;;;;;10423876;28;20679;-76
2022/03/30 14:25:25;;;;;;;4.05;1.38;;;;;;;;;;10417590;28;20211;-75
2022/03/30 14:30:26;;;;;;;3.03;1.20;;;;;;;;;;10416860;28;20719;-76
2022/03/30 14:35:29;;;;;;;2.58;1.38;;;;;;;;;;10410977;28;20702;-75
2022/03/30 14:40:31;;;;;;;7.70;1.52;;;;;;;;;;10414172;28;20207;-75
2022/03/30 14:45:32;;;;;;;4.72;1.40;;;;;;;;;;10418111;28;20215;-75
2022/03/30 14:50:33;;;;;;;5.03;1.38;;;;;;;;;;10422870;28;20230;-76
2022/03/30 14:55:35;;;;;;;2.55;1.33;;;;;;;;;;10408253;28;20321;-75
2022/03/30 15:00:36;;;;;;;8.52;2.00;;;;;;;;;;10421575;28;20199;-75
2022/03/30 15:05:37;;;;;;;2.35;1.30;;;;;;;;;;10428965;28;20210;-74
2022/03/30 15:10:38;;;;;;;3.13;1.55;;;;;;;;;;10424032;28;20203;-76
2022/03/30 15:15:39;;;;;;;7.43;1.33;;;;;;;;;;10427367;28;20211;-75
2022/03/30 15:20:41;;;;;;;9.57;1.70;;;;;;;;;;10424669;28;20192;-75
2022/03/30 15:25:42;;;;;;;2.75;1.77;;;;;;;;;;10422617;28;20706;-76
2022/03/30 15:30:45;;;;;;;3.67;1.70;;;;;;;;;;10421936;28;20210;-76
2022/03/30 15:35:47;;;;;;;4.18;1.42;;;;;;;;;;10420761;28;20210;-76
2022/03/30 15:40:48;;;;;;;4.07;1.85;;;;;;;;;;10427018;28;20972;-76
2022/03/30 15:45:50;;;;;;;7.30;1.95;;;;;;;;;;10423377;28;20207;-76
2022/03/30 15:50:51;;;;;;;4.45;1.70;;;;;;;;;;10424624;28;20199;-76
2022/03/30 15:55:52;;;;;;;6.40;1.83;;;;;;;;;;10427945;28;20598;-76
2022/03/30 16:00:55;;;;;;;2.20;1.80;;;;;;;;;;10425843;28;20208;-76
2022/03/30 16:05:56;;;;;;;7.90;2.35;;;;;;;;;;10423933;28;20195;-76
2022/03/30 16:16:17;;;;;;;4.25;1.67;;;;;;;;;;10428684;28;20225;-75
2022/03/30 16:21:18;;;;;;;6.25;1.75;;;;;;;;;;10425473;28;20753;-71
2022/03/30 16:26:19;;;;;;;4.93;1.70;;;;;;;;;;10425993;28;20218;-75
2022/03/30 16:31:21;;;;;;;6.45;1.55;;;;;;;;;;10421465;28;20219;-76
2022/03/30 16:36:22;;;;;;;3.10;2.03;;;;;;;;;;10426137;28;20257;-75
2022/03/30 16:41:23;;;;;;;4.90;2.45;;;;;;;;;;10423083;28;20552;-75
2022/03/30 16:46:24;;;;;;;8.05;1.70;;;;;;;;;;10420289;28;20203;-76
2022/03/30 16:51:25;;;;;;;7.38;2.42;;;;;;;;;;10424424;28;20274;-76
2022/03/30 16:56:28;;;;;;;4.32;1.90;;;;;;;;;;10424538;28;20219;-76
2022/03/30 17:01:30;;;;;;;2.67;1.92;;;;;;;;;;10423138;28;20211;-76
2022/03/30 17:06:31;;;;;;;6.43;2.20;;;;;;;;;;10426302;28;20247;-75
2022/03/30 17:11:33;;;;;;;9.43;1.80;;;;;;;;;;10427210;28;20202;-75
2022/03/30 17:16:34;;;;;;;4.55;1.92;;;;;;;;;;10438734;28;20310;-76
2022/03/30 17:21:35;;;;;;;6.47;2.08;;;;;;;;;;10423636;28;20195;-76
2022/03/30 17:26:37;;;;;;;3.47;1.92;;;;;;;;;;10426270;28;21223;-76
2022/03/30 17:31:38;;;;;;;8.38;2.17;;;;;;;;;;10424270;28;20721;-76
2022/03/30 17:36:40;;;;;;;5.60;1.80;;;;;;;;;;10421787;28;20222;-76
2022/03/30 17:41:42;;;;;;;5.93;1.92;;;;;;;;;;10419444;28;20698;-76
2022/03/30 17:46:43;;;;;;;7.32;1.80;;;;;;;;;;10424319;28;20226;-76
2022/03/30 17:51:50;;;;;;;4.75;1.70;;;;;;;;;;10423730;28;20294;-76
2022/03/30 17:56:52;;;;;;;4.80;1.40;;;;;;;;;;10421743;28;20607;-76
2022/03/30 18:01:54;;;;;;;4.50;1.73;;;;;;;;;;10419928;28;20211;-76
2022/03/30 18:06:56;;;;;;;7.55;1.30;;;;;;;;;;10416341;28;20206;-78
2022/03/30 18:11:57;;;;;;;2.25;1.40;;;;;;;;;;10420768;28;20199;-76
2022/03/30 18:17:02;;;;;;;4.90;1.30;;;;;;;;;;10424700;28;20316;-76
2022/03/30 18:22:03;;;;;;;5.63;1.80;;;;;;;;;;10425658;28;20192;-76
2022/03/30 18:27:04;;;;;;;4.78;1.50;;;;;;;;;;10428305;28;20286;-75
2022/03/30 18:32:06;;;;;;;3.47;1.67;;;;;;;;;;10425252;28;20215;-76
2022/03/30 18:37:07;;;;;;;2.95;2.15;;;;;;;;;;10427299;28;20297;-77
2022/03/30 18:42:08;;;;;;;2.40;1.80;;;;;;;;;;10429675;28;20256;-76
2022/03/30 18:47:09;;;;;;;9.13;1.90;;;;;;;;;;10428370;28;20199;-76
2022/03/30 18:52:10;;;;;;;5.25;1.55;;;;;;;;;;10426177;28;20289;-77
2022/03/30 18:57:11;;;;;;;3.50;1.48;;;;;;;;;;10428789;28;20253;-79
2022/03/30 19:02:13;;;;;;;5.63;1.90;;;;;;;;;;10424627;28;20332;-76
2022/03/30 19:07:16;;;;;;;2.17;1.83;;;;;;;;;;10423786;28;20211;-75
2022/03/30 19:12:17;;;;;;;4.20;2.05;;;;;;;;;;10424989;28;20207;-75
2022/03/30 19:17:18;;;;;;;3.67;2.10;;;;;;;;;;10417033;28;20215;-76
2022/03/30 19:22:19;;;;;;;2.63;2.00;;;;;;;;;;10447259;28;20207;-77
2022/03/30 19:27:20;;;;;;;4.00;2.30;;;;;;;;;;10427648;28;20687;-75
2022/03/30 19:32:22;;;;;;;4.22;1.73;;;;;;;;;;10434280;28;20214;-76
2022/03/30 19:37:23;;;;;;;3.33;1.88;;;;;;;;;;10428578;28;20215;-75
2022/03/30 19:42:24;;;;;;;2.72;1.70;;;;;;;;;;10446365;28;20207;-75
2022/03/30 19:47:25;;;;;;;5.40;2.22;;;;;;;;;;10426858;28;20265;-76
2022/03/30 19:52:28;;;;;;;3.50;2.65;;;;;;;;;;10430479;28;20276;-75
2022/03/30 19:57:30;;;;;;;3.95;1.77;;;;;;;;;;10425658;28;20226;-75
2022/03/30 20:02:31;;;;;;;3.47;1.77;;;;;;;;;;10426920;28;20224;-75
2022/03/30 20:07:32;;;;;;;1.60;1.50;;;;;;;;;;10422786;28;20203;-76
2022/03/30 20:12:33;;;;;;;3.10;1.70;;;;;;;;;;10426205;28;20200;-76
2022/03/30 20:17:37;;;;;;;1.83;1.70;;;;;;;;;;10421912;28;20207;-73
2022/03/30 20:22:39;;;;;;;1.65;1.55;;;;;;;;;;10428727;28;20210;-76
2022/03/30 20:27:40;;;;;;;3.30;1.58;;;;;;;;;;10424600;28;20214;-76
2022/03/30 20:32:41;;;;;;;4.47;1.55;;;;;;;;;;10416263;28;20215;-76
2022/03/30 20:37:42;;;;;;;5.65;2.17;;;;;;;;;;10424128;28;20210;-75
2022/03/30 20:42:44;;;;;;;3.28;2.25;;;;;;;;;;10422745;28;20200;-75
2022/03/30 20:47:46;;;;;;;2.13;1.63;;;;;;;;;;10423689;28;20211;-76
2022/03/30 20:52:47;;;;;;;1.55;1.50;;;;;;;;;;10418768;28;20231;-76
2022/03/30 20:57:48;;;;;;;3.50;2.00;;;;;;;;;;10415560;28;20774;-75
2022/03/30 21:02:49;;;;;;;1.75;1.70;;;;;;;;;;10418635;28;20218;-75
2022/03/30 21:07:51;;;;;;;3.22;2.20;;;;;;;;;;10418938;28;20625;-75
2022/03/30 21:12:52;;;;;;;1.70;1.55;;;;;;;;;;10419389;28;20237;-76
2022/03/30 21:17:54;;;;;;;1.65;1.55;;;;;;;;;;10419075;28;21028;-76
2022/03/30 21:22:55;;;;;;;1.33;1.33;;;;;;;;;;10417367;28;20702;-76
2022/03/30 21:27:56;;;;;;;2.80;2.22;;;;;;;;;;10417136;28;20257;-75
2022/03/30 21:32:58;;;;;;;1.70;1.60;;;;;;;;;;10417146;28;21046;-75
2022/03/30 21:37:59;;;;;;;3.08;1.85;;;;;;;;;;10416099;28;20207;-75
2022/03/30 21:43:00;;;;;;;1.58;1.58;;;;;;;;;;10437251;28;20196;-76
2022/03/30 21:48:02;;;;;;;2.08;1.77;;;;;;;;;;10419361;28;20219;-76
2022/03/30 21:53:04;;;;;;;2.10;1.90;;;;;;;;;;10414729;28;20722;-75
2022/03/30 21:58:06;;;;;;;2.92;2.03;;;;;;;;;;10419331;28;20206;-75
2022/03/30 22:03:09;;;;;;;3.53;1.80;;;;;;;;;;10409749;28;20707;-76
2022/03/30 22:08:10;;;;;;;1.42;1.33;;;;;;;;;;10412412;28;20206;-76
2022/03/30 22:13:12;;;;;;;6.68;1.70;;;;;;;;;;10410876;28;20268;-76
2022/03/30 22:18:15;;;;;;;4.28;1.90;;;;;;;;;;10412439;28;20219;-76
2022/03/30 22:23:16;;;;;;;2.72;1.95;;;;;;;;;;10415589;28;20202;-76
2022/03/30 22:28:17;;;;;;;4.03;2.20;;;;;;;;;;10426550;28;20234;-75
2022/03/30 22:38:38;;;;;;;4.20;3.25;;;;;;;;;;10420581;28;21601;-75
2022/03/30 22:43:40;;;;;;;6.50;3.58;;;;;;;;;;10416672;28;20199;-76
2022/03/30 22:48:41;;;;;;;3.95;3.00;;;;;;;;;;10412112;28;20665;-75
2022/03/30 22:53:42;;;;;;;5.72;3.55;;;;;;;;;;10415459;28;20234;-75
2022/03/30 22:58:43;;;;;;;5.18;3.15;;;;;;;;;;10415026;28;20362;-75
2022/03/30 23:03:44;;;;;;;5.10;3.33;;;;;;;;;;10410612;28;20737;-75
2022/03/30 23:08:45;;;;;;;6.30;3.22;;;;;;;;;;10416939;28;20334;-75
2022/03/30 23:13:47;;;;;;;6.63;3.75;;;;;;;;;;10420463;28;20695;-75
2022/03/30 23:18:48;;;;;;;3.97;3.60;;;;;;;;;;10423088;28;20214;-75
2022/03/30 23:23:49;;;;;;;5.55;3.38;;;;;;;;;;10415729;28;20198;-75
2022/03/30 23:28:50;;;;;;;7.28;4.18;;;;;;;;;;10423565;28;20671;-75
2022/03/30 23:33:54;;;;;;;8.07;3.58;;;;;;;;;;10417253;28;20281;-75
2022/03/30 23:38:55;;;;;;;4.00;3.58;;;;;;;;;;10423886;28;20223;-75
2022/03/30 23:43:56;;;;;;;9.63;4.53;;;;;;;;;;10421571;28;20454;-75
2022/03/30 23:48:57;;;;;;;9.32;4.22;;;;;;;;;;10418519;28;20209;-75
2022/03/30 23:53:58;;;;;;;7.03;4.30;;;;;;;;;;10417461;28;20308;-76
2022/03/30 23:58:59;;;;;;;6.63;4.38;;;;;;;;;;10416946;28;20202;-75
